Buoy 41997

sailwx.info

Track history (hours):
 
Tides and Currents Weather Stations Pressure Air Temp Water Temp Dewpoint Dewpoint Depression Visibility Wind Speed Wind Dir Waves Ship Positions

Drifting buoy 41997

Last reported at 2014-Oct-21 15:15 UTC. Time now 2014-Oct-21 16:58 UTC.
Position N 27°29' W 033°43'.

Water temperature 25.8 ° C

Date/timePositionNaut miles runAvg speedWind from/ knotsBaromVisibWave heightAir tempDewpointWater temp
2014-Oct-21 15:15N 27°29' W 033°43'0 0.0 25.8
2014-Oct-21 15:00N 27°29' W 033°43'2 0.8 25.8
2014-Oct-21 12:00N 27°31' W 033°41'0 0.0 25.8
2014-Oct-21 11:45N 27°31' W 033°41'0 0.0 25.8
2014-Oct-21 11:00N 27°31' W 033°41'0 0.0 25.8
2014-Oct-21 09:15N 27°31' W 033°41'0 0.0 25.8
2014-Oct-21 09:00N 27°31' W 033°41'0 0.0 25.8
2014-Oct-21 08:00N 27°31' W 033°41'1 2.4 25.8
2014-Oct-21 07:30N 27°32' W 033°42'0 0.0 25.8
2014-Oct-21 06:30N 27°32' W 033°42'0 0.0 25.8
2014-Oct-21 06:15N 27°32' W 033°42'1 1.6 25.7
2014-Oct-21 05:45N 27°32' W 033°41'0 0.0 25.8
2014-Oct-21 05:30N 27°32' W 033°41'1 4.8 25.8
2014-Oct-21 05:15N 27°33' W 033°41'3 1.7 25.8
2014-Oct-21 03:45N 27°35' W 033°39'0 0.0 25.8
2014-Oct-20 23:30N 27°35' W 033°39'1 1.8 25.8
2014-Oct-20 22:45N 27°36' W 033°39'0 0.0 25.8
2014-Oct-20 22:00N 27°36' W 033°39'0 0.0 25.8
2014-Oct-20 21:45N 27°36' W 033°39'1 0.8 25.9
2014-Oct-20 20:15N 27°37' W 033°38'1 1.3 25.9
2014-Oct-20 19:45N 27°37' W 033°39'0 0.0 25.9
2014-Oct-20 19:30N 27°37' W 033°39'1 1.7 25.9
2014-Oct-20 19:00N 27°37' W 033°38'0 0.0 25.9
2014-Oct-20 18:00N 27°37' W 033°38'0 0.0 25.9
2014-Oct-20 17:15N 27°37' W 033°38'0 1.6 25.9
2014-Oct-20 17:00N 27°38' W 033°39'0 0.0 25.9
2014-Oct-20 15:15N 27°38' W 033°39'2 0.7 25.9
2014-Oct-20 12:15N 27°40' W 033°38'1 0.8 25.9
2014-Oct-20 11:30N 27°40' W 033°37'0 0.0 25.9
2014-Oct-20 10:45N 27°40' W 033°37'0 0.1 25.9
2014-Oct-20 08:30N 27°40' W 033°37'0 0.0 25.9
2014-Oct-20 08:15N 27°40' W 033°37'0 1.7 25.9
2014-Oct-20 08:00N 27°40' W 033°37'1 2.4 25.9
2014-Oct-20 07:45N 27°40' W 033°36'0 1.5 25.9
2014-Oct-20 07:30N 27°40' W 033°37'1 1.7 25.9
2014-Oct-20 06:45N 27°41' W 033°35'0 0.0 25.9
2014-Oct-20 06:30N 27°41' W 033°35'0 0.0 26.0
2014-Oct-20 06:00N 27°41' W 033°35'0 0.0 26.0
2014-Oct-20 05:45N 27°41' W 033°35'1 2.4 26.0
2014-Oct-20 05:30N 27°41' W 033°35'3 0.5 26.0
2014-Oct-20 00:00N 27°43' W 033°33'0 0.0 26.0
2014-Oct-19 23:45N 27°43' W 033°33'2 2.4 26.0
2014-Oct-19 23:00N 27°45' W 033°32'0 0.6 26.0
2014-Oct-19 22:15N 27°45' W 033°32'0 0.0 26.0
2014-Oct-19 22:00N 27°45' W 033°32'0 0.0 26.0
2014-Oct-19 20:45N 27°45' W 033°32'1 1.4 26.0
2014-Oct-19 20:00N 27°46' W 033°32'0 0.5 26.1
2014-Oct-19 19:15N 27°46' W 033°32'1 3.1 26.1
2014-Oct-19 19:00N 27°46' W 033°33'0 0.6 26.1
2014-Oct-19 18:30N 27°46' W 033°32'0 0.0 26.1
2014-Oct-19 18:15N 27°46' W 033°32'0 0.3 26.1
2014-Oct-19 17:30N 27°46' W 033°32'1 4.8 26.1
2014-Oct-19 17:15N 27°47' W 033°32'0 0.0 26.1
2014-Oct-19 17:00N 27°47' W 033°32'0 0.0 26.1
2014-Oct-19 15:30N 27°47' W 033°32'0 0.0 26.1
2014-Oct-19 15:15N 27°47' W 033°32'1 0.4 26.1
2014-Oct-19 12:45N 27°48' W 033°32'1 4.8 26.1
2014-Oct-19 12:30N 27°48' W 033°31'1 0.7 26.1
2014-Oct-19 11:45N 27°48' W 033°30'0 0.2 26.1
2014-Oct-19 11:00N 27°48' W 033°30'0 0.2 26.0
2014-Oct-19 08:45N 27°48' W 033°30'1 3.1 26.0
2014-Oct-19 08:30N 27°48' W 033°30'1 1.5 26.0
2014-Oct-19 08:00N 27°48' W 033°30'0 0.2 26.0
2014-Oct-19 07:45N 27°48' W 033°30'0 0.0 26.1
2014-Oct-19 07:15N 27°48' W 033°30'0 1.9 26.0
2014-Oct-19 07:00N 27°48' W 033°29'0 0.0 26.1
2014-Oct-19 06:45N 27°48' W 033°29'0 0.9 26.1
2014-Oct-19 06:15N 27°48' W 033°29'1 2.0 26.1
2014-Oct-19 05:45N 27°49' W 033°28'0 0.0 26.1
2014-Oct-19 04:15N 27°49' W 033°28'312.8 26.1
2014-Oct-19 04:00N 27°51' W 033°25'0 0.0 26.1
2014-Oct-19 00:15N 27°51' W 033°25'0 0.0 26.2
2014-Oct-19 00:00N 27°51' W 033°25'1 2.3 26.2
2014-Oct-18 23:30N 27°52' W 033°26'0 0.0 26.2
2014-Oct-18 23:15N 27°52' W 033°26'1 1.8 26.2
2014-Oct-18 22:30N 27°53' W 033°25'0 0.0 26.2
2014-Oct-18 21:30N 27°53' W 033°25'0 0.0 26.2
2014-Oct-18 21:15N 27°53' W 033°25'2 2.6 26.2
2014-Oct-18 20:30N 27°54' W 033°27'0 0.0 26.2
2014-Oct-18 19:45N 27°54' W 033°27'0 0.0 26.2
2014-Oct-18 19:30N 27°54' W 033°27'0 0.0 26.2
2014-Oct-18 19:15N 27°54' W 033°27'0 0.0 26.2
2014-Oct-18 19:00N 27°54' W 033°27'1 3.2 26.2
2014-Oct-18 18:45N 27°55' W 033°26'0 0.0 26.3
2014-Oct-18 17:45N 27°55' W 033°26'0 0.0 26.3
2014-Oct-18 17:30N 27°55' W 033°26'1 0.6 26.3
2014-Oct-18 15:45N 27°55' W 033°27'0 0.0 26.3
2014-Oct-18 15:30N 27°55' W 033°27'0 0.1 26.3
2014-Oct-18 12:15N 27°55' W 033°27'1 2.5 26.3
2014-Oct-18 12:00N 27°56' W 033°28'1 1.3 26.3
2014-Oct-18 11:15N 27°55' W 033°28'1 0.4 26.3
2014-Oct-18 09:15N 27°55' W 033°27'1 3.6 26.3
2014-Oct-18 09:00N 27°55' W 033°28'1 0.6 26.3
2014-Oct-18 08:00N 27°55' W 033°27'0 0.2 26.3
2014-Oct-18 07:30N 27°55' W 033°27'0 0.0 26.3
2014-Oct-18 07:15N 27°55' W 033°27'0 0.2 26.3
2014-Oct-18 06:30N 27°55' W 033°27'0 0.0 26.3
2014-Oct-18 06:15N 27°55' W 033°27'1 2.3 26.3
2014-Oct-18 06:00N 27°56' W 033°27'3 0.4 26.3
2014-Oct-17 23:45N 27°58' W 033°26'0 0.0 26.3
2014-Oct-17 23:00N 27°58' W 033°26'2 6.7 26.3
2014-Oct-17 22:45N 27°60' W 033°27'0 0.0 26.3
2014-Oct-17 22:00N 27°60' W 033°27'2 1.2 26.3
2014-Oct-17 20:15N 28°00' W 033°29'0 0.0 26.4
2014-Oct-17 20:00N 28°00' W 033°29'0 0.0 26.4
2014-Oct-17 19:30N 28°00' W 033°29'0 0.0 26.4
2014-Oct-17 19:15N 28°00' W 033°29'0 0.0 26.4
2014-Oct-17 18:00N 28°00' W 033°29'0 0.0 26.5
2014-Oct-17 17:30N 28°00' W 033°29'0 0.1 26.5
2014-Oct-17 16:00N 28°00' W 033°29'0 0.0 26.5
2014-Oct-17 15:45N 28°00' W 033°29'3 1.9 26.5
2014-Oct-17 14:15N 27°60' W 033°32'0 0.0 26.4
2014-Oct-17 14:00N 27°60' W 033°32'0 0.0 26.4
2014-Oct-17 12:30N 27°60' W 033°32'0 0.1 26.4
2014-Oct-17 11:45N 27°60' W 033°32'1 4.8 26.3
2014-Oct-17 11:30N 27°58' W 033°32'1 0.2 26.3
2014-Oct-17 08:15N 27°58' W 033°31'0 0.0 26.3
2014-Oct-17 08:00N 27°58' W 033°31'1 2.4 26.3
2014-Oct-17 07:45N 27°58' W 033°32'1 0.6 26.3
2014-Oct-17 06:45N 27°58' W 033°31'0 0.0 26.3
2014-Oct-17 06:30N 27°58' W 033°31'0 0.6 26.3
2014-Oct-17 06:00N 27°59' W 033°31'2 1.5 26.3
2014-Oct-17 04:30N 28°00' W 033°29'0 0.0 26.3
2014-Oct-17 04:15N 28°00' W 033°29'0 0.0 26.3
2014-Oct-17 02:45N 28°00' W 033°29'0 0.0 26.3
2014-Oct-17 00:45N 28°00' W 033°29'0 0.0 26.3
2014-Oct-16 23:15N 28°00' W 033°29'0 0.0 26.3
2014-Oct-16 22:30N 28°00' W 033°29'0 0.0 26.3
2014-Oct-16 21:30N 28°00' W 033°29'1 1.0 26.3
2014-Oct-16 20:45N 28°00' W 033°30'0 0.0 26.3
2014-Oct-16 20:30N 28°00' W 033°30'0 0.1 26.3
2014-Oct-16 19:45N 28°00' W 033°30'0 0.0 26.3
2014-Oct-16 19:30N 28°00' W 033°30'0 0.0 26.3
2014-Oct-16 19:00N 28°00' W 033°30'0 0.0 26.3
2014-Oct-16 18:15N 28°00' W 033°30'1 2.9 26.4
2014-Oct-16 18:00N 28°01' W 033°30'3 0.4 26.4
2014-Oct-16 12:00N 27°59' W 033°32'0 0.0 26.3
2014-Oct-16 11:45N 27°59' W 033°32'0 0.0 26.3
2014-Oct-16 11:15N 27°59' W 033°32'1 0.5 26.3
2014-Oct-16 08:30N 27°59' W 033°30'0 0.0 26.3
2014-Oct-16 08:15N 27°59' W 033°30'0 0.0 26.3
2014-Oct-16 06:45N 27°59' W 033°30'3 1.3 26.3
2014-Oct-16 04:30N 27°60' W 033°27'2 0.4 26.3
2014-Oct-15 22:45N 28°02' W 033°26'1 0.3 26.4
2014-Oct-15 20:00N 28°02' W 033°27'2 0.9 26.4
2014-Oct-15 18:15N 28°03' W 033°25'2 1.0 26.4
2014-Oct-15 16:15N 28°03' W 033°27'0 0.0 26.4
2014-Oct-15 16:00N 28°03' W 033°27'1 0.7 26.4
2014-Oct-15 14:30N 28°03' W 033°28'2 0.9 26.4
2014-Oct-15 12:15N 28°03' W 033°31'1 0.7 26.4
2014-Oct-15 10:30N 28°02' W 033°32'0 0.0 26.4
2014-Oct-15 09:00N 28°02' W 033°32'0 1.9 26.4
2014-Oct-15 08:45N 28°02' W 033°32'0 0.2 26.4
2014-Oct-15 07:00N 28°02' W 033°32'0 0.8 26.5
2014-Oct-15 06:45N 28°02' W 033°32'0 0.0 26.5
2014-Oct-15 05:00N 28°02' W 033°32'1 3.4 26.5
2014-Oct-15 04:45N 28°01' W 033°33'0 0.0 26.5
2014-Oct-15 03:15N 28°01' W 033°33'0 0.0 26.5
2014-Oct-15 00:00N 28°01' W 033°33'0 0.0 26.5
2014-Oct-14 23:45N 28°01' W 033°33'0 0.6 26.5
2014-Oct-14 23:00N 28°01' W 033°33'1 0.3 26.5
2014-Oct-14 20:30N 28°01' W 033°34'1 0.3 26.5
2014-Oct-14 18:30N 28°01' W 033°34'0 0.0 26.7
2014-Oct-14 18:15N 28°01' W 033°34'1 0.3 26.7
2014-Oct-14 16:30N 28°01' W 033°34'0 0.0 26.7
2014-Oct-14 16:15N 28°01' W 033°34'1 0.5 26.7
2014-Oct-14 14:45N 28°01' W 033°35'1 0.3 26.7
2014-Oct-14 12:45N 28°01' W 033°36'1 2.3 26.6
2014-Oct-14 12:30N 28°01' W 033°36'0 0.0 26.6
2014-Oct-14 12:00N 28°01' W 033°36'0 1.7 26.5
2014-Oct-14 11:45N 28°01' W 033°36'2 2.2 26.5
2014-Oct-14 11:00N 27°60' W 033°37'0 0.0 26.5
2014-Oct-14 07:45N 27°59' W 033°37'0 0.0 26.5
2014-Oct-14 07:30N 27°59' W 033°37'0 0.0 26.5
2014-Oct-14 07:15N 27°59' W 033°37'0 1.1 26.6
2014-Oct-14 07:00N 27°59' W 033°37'0 0.0 26.6
2014-Oct-14 05:30N 27°59' W 033°37'0 0.4 26.6
2014-Oct-14 05:00N 27°59' W 033°37'0 0.0 26.6
2014-Oct-14 03:30N 27°59' W 033°37'0 1.9 26.6
2014-Oct-14 03:15N 27°59' W 033°37'0 0.0 26.6
2014-Oct-14 00:15N 27°59' W 033°37'1 1.9 26.6
2014-Oct-13 23:30N 27°58' W 033°37'0 0.0 26.7
2014-Oct-13 22:30N 27°58' W 033°37'0 0.1 26.7
2014-Oct-13 19:15N 27°58' W 033°38'0 0.0 26.8
2014-Oct-13 19:00N 27°58' W 033°38'1 0.6 26.8
2014-Oct-13 17:00N 27°58' W 033°36'0 0.3 26.8
2014-Oct-13 16:45N 27°58' W 033°36'0 0.0 26.8
2014-Oct-13 16:30N 27°58' W 033°36'0 0.1 26.8
2014-Oct-13 15:00N 27°58' W 033°36'0 0.0 26.8
2014-Oct-13 14:45N 27°58' W 033°36'1 0.3 26.8
2014-Oct-13 12:15N 27°58' W 033°36'0 0.0 26.6
2014-Oct-13 12:00N 27°58' W 033°36'1 1.4 26.6
2014-Oct-13 11:15N 27°58' W 033°35'0 0.0 26.5
2014-Oct-13 08:30N 27°58' W 033°35'0 0.0 26.5
2014-Oct-13 08:15N 27°58' W 033°35'0 0.0 26.5
2014-Oct-13 08:00N 27°58' W 033°35'1 0.7 26.5
2014-Oct-13 07:15N 27°57' W 033°34'1 1.1 26.5
2014-Oct-13 06:45N 27°58' W 033°35'1 1.1 26.6
2014-Oct-13 06:15N 27°57' W 033°34'1 1.6 26.6
2014-Oct-13 05:45N 27°58' W 033°34'0 0.0 26.5
2014-Oct-13 05:30N 27°58' W 033°34'0 0.0 26.5
2014-Oct-13 05:15N 27°58' W 033°34'1 0.4 26.5
2014-Oct-13 03:30N 27°58' W 033°33'0 0.0 26.6
2014-Oct-13 00:45N 27°58' W 033°33'0 0.0 26.6
2014-Oct-13 00:30N 27°58' W 033°33'0 0.3 26.6
2014-Oct-13 00:00N 27°57' W 033°33'0 0.0 26.6
2014-Oct-12 23:45N 27°57' W 033°33'2 2.1 26.6
2014-Oct-12 23:00N 27°57' W 033°31'0 0.0 26.6
2014-Oct-12 22:15N 27°57' W 033°31'1 0.2 26.6
2014-Oct-12 19:45N 27°57' W 033°31'0 0.0 26.6
2014-Oct-12 19:30N 27°57' W 033°31'0 0.0 26.6
2014-Oct-12 19:00N 27°57' W 033°31'0 0.0 26.6
2014-Oct-12 18:45N 27°57' W 033°31'1 1.6 26.6
2014-Oct-12 18:00N 27°58' W 033°30'0 0.0 26.7
2014-Oct-12 17:15N 27°58' W 033°30'1 2.4 26.7
2014-Oct-12 17:00N 27°59' W 033°30'0 1.6 26.7
2014-Oct-12 16:45N 27°59' W 033°29'0 0.0 26.7
2014-Oct-12 15:15N 27°59' W 033°29'0 0.0 26.8
2014-Oct-12 15:00N 27°59' W 033°29'1 0.4 26.8
2014-Oct-12 11:45N 27°60' W 033°29'1 2.1 26.6
2014-Oct-12 11:30N 27°60' W 033°28'0 0.1 26.6
2014-Oct-12 08:45N 27°60' W 033°28'0 0.2 26.6
2014-Oct-12 07:30N 27°60' W 033°28'0 0.0 26.6
2014-Oct-12 07:15N 27°60' W 033°28'1 1.9 26.6
2014-Oct-12 06:45N 27°60' W 033°27'0 0.0 26.6
2014-Oct-12 06:30N 27°60' W 033°27'0 0.0 26.6
2014-Oct-12 05:45N 27°60' W 033°27'0 0.0 26.6
2014-Oct-12 05:30N 27°60' W 033°27'1 3.8 26.6
2014-Oct-12 05:15N 28°00' W 033°26'2 1.3 26.6
2014-Oct-12 03:45N 28°00' W 033°24'0 0.0 26.7
2014-Oct-12 03:30N 28°00' W 033°24'0 0.0 26.6
2014-Oct-12 01:00N 28°00' W 033°24'0 0.0 26.7
2014-Oct-12 00:00N 28°00' W 033°24'0 0.0 26.7
2014-Oct-11 23:15N 28°00' W 033°24'0 0.0 26.7
2014-Oct-11 22:30N 28°00' W 033°24'0 0.5 26.7
2014-Oct-11 21:45N 28°01' W 033°23'0 0.0 26.7
2014-Oct-11 21:30N 28°01' W 033°23'0 0.0 26.7
2014-Oct-11 20:00N 28°01' W 033°23'0 0.3 26.8
2014-Oct-11 19:00N 28°01' W 033°24'0 0.0 26.8
2014-Oct-11 18:30N 28°01' W 033°24'0 0.0 26.8
2014-Oct-11 18:15N 28°01' W 033°24'2 2.5 26.8
2014-Oct-11 17:30N 28°01' W 033°22'0 0.0 26.8
2014-Oct-11 17:15N 28°01' W 033°22'0 0.0 26.8
2014-Oct-11 17:00N 28°01' W 033°22'0 0.0 26.9
2014-Oct-11 15:15N 28°01' W 033°22'   26.8
Track history (hours):
 
Tides and Currents Weather Stations Pressure Air Temp Water Temp Dewpoint Dewpoint Depression Visibility Wind Speed Wind Dir Waves Ship Positions

Drifting buoy 41997

Last reported at 2014-Oct-21 15:15 UTC. Time now 2014-Oct-21 16:58 UTC.
Position N 27°29' W 033°43'.

Water temperature 25.8 ° C

Date/timePositionNaut miles runAvg speedWind from/ knotsBaromVisibWave heightAir tempDewpointWater temp
2014-Oct-21 15:15N 27°29' W 033°43'0 0.0 25.8
2014-Oct-21 15:00N 27°29' W 033°43'2 0.8 25.8
2014-Oct-21 12:00N 27°31' W 033°41'0 0.0 25.8
2014-Oct-21 11:45N 27°31' W 033°41'0 0.0 25.8
2014-Oct-21 11:00N 27°31' W 033°41'0 0.0 25.8
2014-Oct-21 09:15N 27°31' W 033°41'0 0.0 25.8
2014-Oct-21 09:00N 27°31' W 033°41'0 0.0 25.8
2014-Oct-21 08:00N 27°31' W 033°41'1 2.4 25.8
2014-Oct-21 07:30N 27°32' W 033°42'0 0.0 25.8
2014-Oct-21 06:30N 27°32' W 033°42'0 0.0 25.8
2014-Oct-21 06:15N 27°32' W 033°42'1 1.6 25.7
2014-Oct-21 05:45N 27°32' W 033°41'0 0.0 25.8
2014-Oct-21 05:30N 27°32' W 033°41'1 4.8 25.8
2014-Oct-21 05:15N 27°33' W 033°41'3 1.7 25.8
2014-Oct-21 03:45N 27°35' W 033°39'0 0.0 25.8
2014-Oct-20 23:30N 27°35' W 033°39'1 1.8 25.8
2014-Oct-20 22:45N 27°36' W 033°39'0 0.0 25.8
2014-Oct-20 22:00N 27°36' W 033°39'0 0.0 25.8
2014-Oct-20 21:45N 27°36' W 033°39'1 0.8 25.9
2014-Oct-20 20:15N 27°37' W 033°38'1 1.3 25.9
2014-Oct-20 19:45N 27°37' W 033°39'0 0.0 25.9
2014-Oct-20 19:30N 27°37' W 033°39'1 1.7 25.9
2014-Oct-20 19:00N 27°37' W 033°38'0 0.0 25.9
2014-Oct-20 18:00N 27°37' W 033°38'0 0.0 25.9
2014-Oct-20 17:15N 27°37' W 033°38'0 1.6 25.9
2014-Oct-20 17:00N 27°38' W 033°39'0 0.0 25.9
2014-Oct-20 15:15N 27°38' W 033°39'2 0.7 25.9
2014-Oct-20 12:15N 27°40' W 033°38'1 0.8 25.9
2014-Oct-20 11:30N 27°40' W 033°37'0 0.0 25.9
2014-Oct-20 10:45N 27°40' W 033°37'0 0.1 25.9
2014-Oct-20 08:30N 27°40' W 033°37'0 0.0 25.9
2014-Oct-20 08:15N 27°40' W 033°37'0 1.7 25.9
2014-Oct-20 08:00N 27°40' W 033°37'1 2.4 25.9
2014-Oct-20 07:45N 27°40' W 033°36'0 1.5 25.9
2014-Oct-20 07:30N 27°40' W 033°37'1 1.7 25.9
2014-Oct-20 06:45N 27°41' W 033°35'0 0.0 25.9
2014-Oct-20 06:30N 27°41' W 033°35'0 0.0 26.0
2014-Oct-20 06:00N 27°41' W 033°35'0 0.0 26.0
2014-Oct-20 05:45N 27°41' W 033°35'1 2.4 26.0
2014-Oct-20 05:30N 27°41' W 033°35'3 0.5 26.0
2014-Oct-20 00:00N 27°43' W 033°33'0 0.0 26.0
2014-Oct-19 23:45N 27°43' W 033°33'2 2.4 26.0
2014-Oct-19 23:00N 27°45' W 033°32'0 0.6 26.0
2014-Oct-19 22:15N 27°45' W 033°32'0 0.0 26.0
2014-Oct-19 22:00N 27°45' W 033°32'0 0.0 26.0
2014-Oct-19 20:45N 27°45' W 033°32'1 1.4 26.0
2014-Oct-19 20:00N 27°46' W 033°32'0 0.5 26.1
2014-Oct-19 19:15N 27°46' W 033°32'1 3.1 26.1
2014-Oct-19 19:00N 27°46' W 033°33'0 0.6 26.1
2014-Oct-19 18:30N 27°46' W 033°32'0 0.0 26.1
2014-Oct-19 18:15N 27°46' W 033°32'0 0.3 26.1
2014-Oct-19 17:30N 27°46' W 033°32'1 4.8 26.1
2014-Oct-19 17:15N 27°47' W 033°32'0 0.0 26.1
2014-Oct-19 17:00N 27°47' W 033°32'0 0.0 26.1
2014-Oct-19 15:30N 27°47' W 033°32'0 0.0 26.1
2014-Oct-19 15:15N 27°47' W 033°32'1 0.4 26.1
2014-Oct-19 12:45N 27°48' W 033°32'1 4.8 26.1
2014-Oct-19 12:30N 27°48' W 033°31'1 0.7 26.1
2014-Oct-19 11:45N 27°48' W 033°30'0 0.2 26.1
2014-Oct-19 11:00N 27°48' W 033°30'0 0.2 26.0
2014-Oct-19 08:45N 27°48' W 033°30'1 3.1 26.0
2014-Oct-19 08:30N 27°48' W 033°30'1 1.5 26.0
2014-Oct-19 08:00N 27°48' W 033°30'0 0.2 26.0
2014-Oct-19 07:45N 27°48' W 033°30'0 0.0 26.1
2014-Oct-19 07:15N 27°48' W 033°30'0 1.9 26.0
2014-Oct-19 07:00N 27°48' W 033°29'0 0.0 26.1
2014-Oct-19 06:45N 27°48' W 033°29'0 0.9 26.1
2014-Oct-19 06:15N 27°48' W 033°29'1 2.0 26.1
2014-Oct-19 05:45N 27°49' W 033°28'0 0.0 26.1
2014-Oct-19 04:15N 27°49' W 033°28'312.8 26.1
2014-Oct-19 04:00N 27°51' W 033°25'0 0.0 26.1
2014-Oct-19 00:15N 27°51' W 033°25'0 0.0 26.2
2014-Oct-19 00:00N 27°51' W 033°25'1 2.3 26.2
2014-Oct-18 23:30N 27°52' W 033°26'0 0.0 26.2
2014-Oct-18 23:15N 27°52' W 033°26'1 1.8 26.2
2014-Oct-18 22:30N 27°53' W 033°25'0 0.0 26.2
2014-Oct-18 21:30N 27°53' W 033°25'0 0.0 26.2
2014-Oct-18 21:15N 27°53' W 033°25'2 2.6 26.2
2014-Oct-18 20:30N 27°54' W 033°27'0 0.0 26.2
2014-Oct-18 19:45N 27°54' W 033°27'0 0.0 26.2
2014-Oct-18 19:30N 27°54' W 033°27'0 0.0 26.2
2014-Oct-18 19:15N 27°54' W 033°27'0 0.0 26.2
2014-Oct-18 19:00N 27°54' W 033°27'1 3.2 26.2
2014-Oct-18 18:45N 27°55' W 033°26'0 0.0 26.3
2014-Oct-18 17:45N 27°55' W 033°26'0 0.0 26.3
2014-Oct-18 17:30N 27°55' W 033°26'1 0.6 26.3
2014-Oct-18 15:45N 27°55' W 033°27'0 0.0 26.3
2014-Oct-18 15:30N 27°55' W 033°27'0 0.1 26.3
2014-Oct-18 12:15N 27°55' W 033°27'1 2.5 26.3
2014-Oct-18 12:00N 27°56' W 033°28'1 1.3 26.3
2014-Oct-18 11:15N 27°55' W 033°28'1 0.4 26.3
2014-Oct-18 09:15N 27°55' W 033°27'1 3.6 26.3
2014-Oct-18 09:00N 27°55' W 033°28'1 0.6 26.3
2014-Oct-18 08:00N 27°55' W 033°27'0 0.2 26.3
2014-Oct-18 07:30N 27°55' W 033°27'0 0.0 26.3
2014-Oct-18 07:15N 27°55' W 033°27'0 0.2 26.3
2014-Oct-18 06:30N 27°55' W 033°27'0 0.0 26.3
2014-Oct-18 06:15N 27°55' W 033°27'1 2.3 26.3
2014-Oct-18 06:00N 27°56' W 033°27'3 0.4 26.3
2014-Oct-17 23:45N 27°58' W 033°26'0 0.0 26.3
2014-Oct-17 23:00N 27°58' W 033°26'2 6.7 26.3
2014-Oct-17 22:45N 27°60' W 033°27'0 0.0 26.3
2014-Oct-17 22:00N 27°60' W 033°27'2 1.2 26.3
2014-Oct-17 20:15N 28°00' W 033°29'0 0.0 26.4
2014-Oct-17 20:00N 28°00' W 033°29'0 0.0 26.4
2014-Oct-17 19:30N 28°00' W 033°29'0 0.0 26.4
2014-Oct-17 19:15N 28°00' W 033°29'0 0.0 26.4
2014-Oct-17 18:00N 28°00' W 033°29'0 0.0 26.5
2014-Oct-17 17:30N 28°00' W 033°29'0 0.1 26.5
2014-Oct-17 16:00N 28°00' W 033°29'0 0.0 26.5
2014-Oct-17 15:45N 28°00' W 033°29'3 1.9 26.5
2014-Oct-17 14:15N 27°60' W 033°32'0 0.0 26.4
2014-Oct-17 14:00N 27°60' W 033°32'0 0.0 26.4
2014-Oct-17 12:30N 27°60' W 033°32'0 0.1 26.4
2014-Oct-17 11:45N 27°60' W 033°32'1 4.8 26.3
2014-Oct-17 11:30N 27°58' W 033°32'1 0.2 26.3
2014-Oct-17 08:15N 27°58' W 033°31'0 0.0 26.3
2014-Oct-17 08:00N 27°58' W 033°31'1 2.4 26.3
2014-Oct-17 07:45N 27°58' W 033°32'1 0.6 26.3
2014-Oct-17 06:45N 27°58' W 033°31'0 0.0 26.3
2014-Oct-17 06:30N 27°58' W 033°31'0 0.6 26.3
2014-Oct-17 06:00N 27°59' W 033°31'2 1.5 26.3
2014-Oct-17 04:30N 28°00' W 033°29'0 0.0 26.3
2014-Oct-17 04:15N 28°00' W 033°29'0 0.0 26.3
2014-Oct-17 02:45N 28°00' W 033°29'0 0.0 26.3
2014-Oct-17 00:45N 28°00' W 033°29'0 0.0 26.3
2014-Oct-16 23:15N 28°00' W 033°29'0 0.0 26.3
2014-Oct-16 22:30N 28°00' W 033°29'0 0.0 26.3
2014-Oct-16 21:30N 28°00' W 033°29'1 1.0 26.3
2014-Oct-16 20:45N 28°00' W 033°30'0 0.0 26.3
2014-Oct-16 20:30N 28°00' W 033°30'0 0.1 26.3
2014-Oct-16 19:45N 28°00' W 033°30'0 0.0 26.3
2014-Oct-16 19:30N 28°00' W 033°30'0 0.0 26.3
2014-Oct-16 19:00N 28°00' W 033°30'0 0.0 26.3
2014-Oct-16 18:15N 28°00' W 033°30'1 2.9 26.4
2014-Oct-16 18:00N 28°01' W 033°30'3 0.4 26.4
2014-Oct-16 12:00N 27°59' W 033°32'0 0.0 26.3
2014-Oct-16 11:45N 27°59' W 033°32'0 0.0 26.3
2014-Oct-16 11:15N 27°59' W 033°32'1 0.5 26.3
2014-Oct-16 08:30N 27°59' W 033°30'0 0.0 26.3
2014-Oct-16 08:15N 27°59' W 033°30'0 0.0 26.3
2014-Oct-16 06:45N 27°59' W 033°30'3 1.3 26.3
2014-Oct-16 04:30N 27°60' W 033°27'2 0.4 26.3
2014-Oct-15 22:45N 28°02' W 033°26'1 0.3 26.4
2014-Oct-15 20:00N 28°02' W 033°27'2 0.9 26.4
2014-Oct-15 18:15N 28°03' W 033°25'2 1.0 26.4
2014-Oct-15 16:15N 28°03' W 033°27'0 0.0 26.4
2014-Oct-15 16:00N 28°03' W 033°27'1 0.7 26.4
2014-Oct-15 14:30N 28°03' W 033°28'2 0.9 26.4
2014-Oct-15 12:15N 28°03' W 033°31'1 0.7 26.4
2014-Oct-15 10:30N 28°02' W 033°32'0 0.0 26.4
2014-Oct-15 09:00N 28°02' W 033°32'0 1.9 26.4
2014-Oct-15 08:45N 28°02' W 033°32'0 0.2 26.4
2014-Oct-15 07:00N 28°02' W 033°32'0 0.8 26.5
2014-Oct-15 06:45N 28°02' W 033°32'0 0.0 26.5
2014-Oct-15 05:00N 28°02' W 033°32'1 3.4 26.5
2014-Oct-15 04:45N 28°01' W 033°33'0 0.0 26.5
2014-Oct-15 03:15N 28°01' W 033°33'0 0.0 26.5
2014-Oct-15 00:00N 28°01' W 033°33'0 0.0 26.5
2014-Oct-14 23:45N 28°01' W 033°33'0 0.6 26.5
2014-Oct-14 23:00N 28°01' W 033°33'1 0.3 26.5
2014-Oct-14 20:30N 28°01' W 033°34'1 0.3 26.5
2014-Oct-14 18:30N 28°01' W 033°34'0 0.0 26.7
2014-Oct-14 18:15N 28°01' W 033°34'1 0.3 26.7
2014-Oct-14 16:30N 28°01' W 033°34'0 0.0 26.7
2014-Oct-14 16:15N 28°01' W 033°34'1 0.5 26.7
2014-Oct-14 14:45N 28°01' W 033°35'1 0.3 26.7
2014-Oct-14 12:45N 28°01' W 033°36'1 2.3 26.6
2014-Oct-14 12:30N 28°01' W 033°36'0 0.0 26.6
2014-Oct-14 12:00N 28°01' W 033°36'0 1.7 26.5
2014-Oct-14 11:45N 28°01' W 033°36'2 2.2 26.5
2014-Oct-14 11:00N 27°60' W 033°37'0 0.0 26.5
2014-Oct-14 07:45N 27°59' W 033°37'0 0.0 26.5
2014-Oct-14 07:30N 27°59' W 033°37'0 0.0 26.5
2014-Oct-14 07:15N 27°59' W 033°37'0 1.1 26.6
2014-Oct-14 07:00N 27°59' W 033°37'0 0.0 26.6
2014-Oct-14 05:30N 27°59' W 033°37'0 0.4 26.6
2014-Oct-14 05:00N 27°59' W 033°37'0 0.0 26.6
2014-Oct-14 03:30N 27°59' W 033°37'0 1.9 26.6
2014-Oct-14 03:15N 27°59' W 033°37'0 0.0 26.6
2014-Oct-14 00:15N 27°59' W 033°37'1 1.9 26.6
2014-Oct-13 23:30N 27°58' W 033°37'0 0.0 26.7
2014-Oct-13 22:30N 27°58' W 033°37'0 0.1 26.7
2014-Oct-13 19:15N 27°58' W 033°38'0 0.0 26.8
2014-Oct-13 19:00N 27°58' W 033°38'1 0.6 26.8
2014-Oct-13 17:00N 27°58' W 033°36'0 0.3 26.8
2014-Oct-13 16:45N 27°58' W 033°36'0 0.0 26.8
2014-Oct-13 16:30N 27°58' W 033°36'0 0.1 26.8
2014-Oct-13 15:00N 27°58' W 033°36'0 0.0 26.8
2014-Oct-13 14:45N 27°58' W 033°36'1 0.3 26.8
2014-Oct-13 12:15N 27°58' W 033°36'0 0.0 26.6
2014-Oct-13 12:00N 27°58' W 033°36'1 1.4 26.6
2014-Oct-13 11:15N 27°58' W 033°35'0 0.0 26.5
2014-Oct-13 08:30N 27°58' W 033°35'0 0.0 26.5
2014-Oct-13 08:15N 27°58' W 033°35'0 0.0 26.5
2014-Oct-13 08:00N 27°58' W 033°35'1 0.7 26.5
2014-Oct-13 07:15N 27°57' W 033°34'1 1.1 26.5
2014-Oct-13 06:45N 27°58' W 033°35'1 1.1 26.6
2014-Oct-13 06:15N 27°57' W 033°34'1 1.6 26.6
2014-Oct-13 05:45N 27°58' W 033°34'0 0.0 26.5
2014-Oct-13 05:30N 27°58' W 033°34'0 0.0 26.5
2014-Oct-13 05:15N 27°58' W 033°34'1 0.4 26.5
2014-Oct-13 03:30N 27°58' W 033°33'0 0.0 26.6
2014-Oct-13 00:45N 27°58' W 033°33'0 0.0 26.6
2014-Oct-13 00:30N 27°58' W 033°33'0 0.3 26.6
2014-Oct-13 00:00N 27°57' W 033°33'0 0.0 26.6
2014-Oct-12 23:45N 27°57' W 033°33'2 2.1 26.6
2014-Oct-12 23:00N 27°57' W 033°31'0 0.0 26.6
2014-Oct-12 22:15N 27°57' W 033°31'1 0.2 26.6
2014-Oct-12 19:45N 27°57' W 033°31'0 0.0 26.6
2014-Oct-12 19:30N 27°57' W 033°31'0 0.0 26.6
2014-Oct-12 19:00N 27°57' W 033°31'0 0.0 26.6
2014-Oct-12 18:45N 27°57' W 033°31'1 1.6 26.6
2014-Oct-12 18:00N 27°58' W 033°30'0 0.0 26.7
2014-Oct-12 17:15N 27°58' W 033°30'1 2.4 26.7
2014-Oct-12 17:00N 27°59' W 033°30'0 1.6 26.7
2014-Oct-12 16:45N 27°59' W 033°29'0 0.0 26.7
2014-Oct-12 15:15N 27°59' W 033°29'0 0.0 26.8
2014-Oct-12 15:00N 27°59' W 033°29'1 0.4 26.8
2014-Oct-12 11:45N 27°60' W 033°29'1 2.1 26.6
2014-Oct-12 11:30N 27°60' W 033°28'0 0.1 26.6
2014-Oct-12 08:45N 27°60' W 033°28'0 0.2 26.6
2014-Oct-12 07:30N 27°60' W 033°28'0 0.0 26.6
2014-Oct-12 07:15N 27°60' W 033°28'1 1.9 26.6
2014-Oct-12 06:45N 27°60' W 033°27'0 0.0 26.6
2014-Oct-12 06:30N 27°60' W 033°27'0 0.0 26.6
2014-Oct-12 05:45N 27°60' W 033°27'0 0.0 26.6
2014-Oct-12 05:30N 27°60' W 033°27'1 3.8 26.6
2014-Oct-12 05:15N 28°00' W 033°26'2 1.3 26.6
2014-Oct-12 03:45N 28°00' W 033°24'0 0.0 26.7
2014-Oct-12 03:30N 28°00' W 033°24'0 0.0 26.6
2014-Oct-12 01:00N 28°00' W 033°24'0 0.0 26.7
2014-Oct-12 00:00N 28°00' W 033°24'0 0.0 26.7
2014-Oct-11 23:15N 28°00' W 033°24'0 0.0 26.7
2014-Oct-11 22:30N 28°00' W 033°24'0 0.5 26.7
2014-Oct-11 21:45N 28°01' W 033°23'0 0.0 26.7
2014-Oct-11 21:30N 28°01' W 033°23'0 0.0 26.7
2014-Oct-11 20:00N 28°01' W 033°23'0 0.3 26.8
2014-Oct-11 19:00N 28°01' W 033°24'0 0.0 26.8
2014-Oct-11 18:30N 28°01' W 033°24'0 0.0 26.8
2014-Oct-11 18:15N 28°01' W 033°24'2 2.5 26.8
2014-Oct-11 17:30N 28°01' W 033°22'0 0.0 26.8
2014-Oct-11 17:15N 28°01' W 033°22'0 0.0 26.8
2014-Oct-11 17:00N 28°01' W 033°22'0 0.0 26.9
2014-Oct-11 15:15N 28°01' W 033°22'   26.8

Dump ship's entire track history